sensor_id;sensor_type;location;lat;lon;timestamp;P1;durP1;ratioP1;P2;durP2;ratioP2
59016;SDS011;44800;55.600;38.134;2022-09-21T00:01:16;20.92;;;10.73;;
59016;SDS011;44800;55.600;38.134;2022-09-21T00:03:45;26.23;;;13.13;;
59016;SDS011;44800;55.600;38.134;2022-09-21T00:06:15;25.63;;;11.38;;
59016;SDS011;44800;55.600;38.134;2022-09-21T00:08:44;25.73;;;11.35;;
59016;SDS011;44800;55.600;38.134;2022-09-21T00:11:15;24.60;;;11.07;;
59016;SDS011;44800;55.600;38.134;2022-09-21T00:13:45;26.50;;;11.60;;
59016;SDS011;44800;55.600;38.134;2022-09-21T00:16:14;22.50;;;11.68;;
59016;SDS011;44800;55.600;38.134;2022-09-21T00:18:44;27.60;;;12.90;;
59016;SDS011;44800;55.600;38.134;2022-09-21T00:21:13;21.15;;;10.98;;
59016;SDS011;44800;55.600;38.134;2022-09-21T00:23:42;23.73;;;11.77;;
59016;SDS011;44800;55.600;38.134;2022-09-21T00:26:12;27.02;;;11.52;;
59016;SDS011;44800;55.600;38.134;2022-09-21T00:28:42;23.48;;;11.40;;
59016;SDS011;44800;55.600;38.134;2022-09-21T00:31:11;22.27;;;11.88;;
59016;SDS011;44800;55.600;38.134;2022-09-21T00:33:41;23.00;;;11.48;;
59016;SDS011;44800;55.600;38.134;2022-09-21T00:36:10;20.55;;;11.02;;
59016;SDS011;44800;55.600;38.134;2022-09-21T00:38:40;25.38;;;11.68;;
59016;SDS011;44800;55.600;38.134;2022-09-21T00:41:13;23.48;;;11.57;;
59016;SDS011;44800;55.600;38.134;2022-09-21T00:43:44;25.67;;;11.55;;
59016;SDS011;44800;55.600;38.134;2022-09-21T00:46:15;24.80;;;12.55;;
59016;SDS011;44800;55.600;38.134;2022-09-21T00:48:50;22.00;;;11.35;;
59016;SDS011;44800;55.600;38.134;2022-09-21T00:51:18;24.35;;;11.02;;
59016;SDS011;44800;55.600;38.134;2022-09-21T00:53:46;23.88;;;11.98;;
59016;SDS011;44800;55.600;38.134;2022-09-21T00:56:21;22.55;;;10.20;;
59016;SDS011;44800;55.600;38.134;2022-09-21T00:58:50;19.50;;;11.15;;
59016;SDS011;44800;55.600;38.134;2022-09-21T01:01:21;24.00;;;11.32;;
59016;SDS011;44800;55.600;38.134;2022-09-21T01:03:51;30.60;;;12.70;;
59016;SDS011;44800;55.600;38.134;2022-09-21T01:06:23;29.60;;;10.90;;
59016;SDS011;44800;55.600;38.134;2022-09-21T01:08:52;22.58;;;13.00;;
59016;SDS011;44800;55.600;38.134;2022-09-21T01:11:28;26.38;;;11.45;;
59016;SDS011;44800;55.600;38.134;2022-09-21T01:16:53;27.65;;;12.40;;
59016;SDS011;44800;55.600;38.134;2022-09-21T01:19:43;20.92;;;11.52;;
59016;SDS011;44800;55.600;38.134;2022-09-21T01:22:36;31.63;;;12.55;;
59016;SDS011;44800;55.600;38.134;2022-09-21T01:25:18;27.23;;;12.98;;
59016;SDS011;44800;55.600;38.134;2022-09-21T01:28:00;27.60;;;13.50;;
59016;SDS011;44800;55.600;38.134;2022-09-21T01:30:36;30.10;;;12.65;;
59016;SDS011;44800;55.600;38.134;2022-09-21T01:33:05;27.83;;;12.13;;
59016;SDS011;44800;55.600;38.134;2022-09-21T01:35:39;25.92;;;12.30;;
59016;SDS011;44800;55.600;38.134;2022-09-21T01:38:09;27.65;;;12.40;;
59016;SDS011;44800;55.600;38.134;2022-09-21T01:40:42;30.08;;;12.63;;
59016;SDS011;44800;55.600;38.134;2022-09-21T01:43:13;26.50;;;11.75;;
59016;SDS011;44800;55.600;38.134;2022-09-21T01:45:48;27.83;;;11.35;;
59016;SDS011;44800;55.600;38.134;2022-09-21T01:48:18;26.65;;;10.70;;
59016;SDS011;44800;55.600;38.134;2022-09-21T01:50:49;26.63;;;12.07;;
59016;SDS011;44800;55.600;38.134;2022-09-21T01:53:19;26.27;;;12.68;;
59016;SDS011;44800;55.600;38.134;2022-09-21T01:55:50;25.98;;;12.88;;
59016;SDS011;44800;55.600;38.134;2022-09-21T01:58:23;24.50;;;11.57;;
59016;SDS011;44800;55.600;38.134;2022-09-21T02:00:58;30.20;;;12.90;;
59016;SDS011;44800;55.600;38.134;2022-09-21T02:03:27;26.75;;;12.43;;
59016;SDS011;44800;55.600;38.134;2022-09-21T02:05:57;30.55;;;14.07;;
59016;SDS011;44800;55.600;38.134;2022-09-21T02:08:26;25.83;;;12.43;;
59016;SDS011;44800;55.600;38.134;2022-09-21T02:10:58;27.35;;;12.65;;
59016;SDS011;44800;55.600;38.134;2022-09-21T02:13:28;26.30;;;12.45;;
59016;SDS011;44800;55.600;38.134;2022-09-21T02:16:07;23.90;;;12.88;;
59016;SDS011;44800;55.600;38.134;2022-09-21T02:18:47;30.15;;;12.52;;
59016;SDS011;44800;55.600;38.134;2022-09-21T02:21:24;28.58;;;12.82;;
59016;SDS011;44800;55.600;38.134;2022-09-21T02:23:59;28.90;;;13.90;;
59016;SDS011;44800;55.600;38.134;2022-09-21T02:26:35;30.67;;;12.27;;
59016;SDS011;44800;55.600;38.134;2022-09-21T02:29:09;23.95;;;10.77;;
59016;SDS011;44800;55.600;38.134;2022-09-21T02:31:47;28.05;;;11.93;;
59016;SDS011;44800;55.600;38.134;2022-09-21T02:34:19;21.25;;;11.13;;
59016;SDS011;44800;55.600;38.134;2022-09-21T02:36:51;26.13;;;11.20;;
59016;SDS011;44800;55.600;38.134;2022-09-21T02:39:25;21.25;;;9.88;;
59016;SDS011;44800;55.600;38.134;2022-09-21T02:42:00;27.42;;;12.73;;
59016;SDS011;44800;55.600;38.134;2022-09-21T02:44:33;21.23;;;11.68;;
59016;SDS011;44800;55.600;38.134;2022-09-21T02:47:08;23.20;;;10.77;;
59016;SDS011;44800;55.600;38.134;2022-09-21T02:49:42;24.77;;;10.32;;
59016;SDS011;44800;55.600;38.134;2022-09-21T02:52:16;21.42;;;10.75;;
59016;SDS011;44800;55.600;38.134;2022-09-21T02:54:46;26.58;;;11.35;;
59016;SDS011;44800;55.600;38.134;2022-09-21T02:57:17;23.10;;;10.65;;
59016;SDS011;44800;55.600;38.134;2022-09-21T02:59:47;22.77;;;11.10;;
59016;SDS011;44800;55.600;38.134;2022-09-21T03:02:17;31.48;;;12.35;;
59016;SDS011;44800;55.600;38.134;2022-09-21T03:04:46;28.42;;;11.40;;
59016;SDS011;44800;55.600;38.134;2022-09-21T03:07:15;25.40;;;10.80;;
59016;SDS011;44800;55.600;38.134;2022-09-21T03:09:44;27.67;;;11.98;;
59016;SDS011;44800;55.600;38.134;2022-09-21T03:12:14;35.15;;;13.98;;
59016;SDS011;44800;55.600;38.134;2022-09-21T03:14:44;36.95;;;14.10;;
59016;SDS011;44800;55.600;38.134;2022-09-21T03:17:12;28.58;;;12.50;;
59016;SDS011;44800;55.600;38.134;2022-09-21T03:19:45;32.78;;;13.18;;
59016;SDS011;44800;55.600;38.134;2022-09-21T03:22:13;41.53;;;17.63;;
59016;SDS011;44800;55.600;38.134;2022-09-21T03:24:42;50.65;;;18.27;;
59016;SDS011;44800;55.600;38.134;2022-09-21T03:27:14;53.33;;;19.70;;
59016;SDS011;44800;55.600;38.134;2022-09-21T03:29:43;49.15;;;19.02;;
59016;SDS011;44800;55.600;38.134;2022-09-21T03:32:11;36.95;;;14.13;;
59016;SDS011;44800;55.600;38.134;2022-09-21T03:34:42;32.17;;;13.10;;
59016;SDS011;44800;55.600;38.134;2022-09-21T03:37:12;36.13;;;12.65;;
59016;SDS011;44800;55.600;38.134;2022-09-21T03:39:40;33.38;;;13.63;;
59016;SDS011;44800;55.600;38.134;2022-09-21T03:42:08;28.20;;;13.45;;
59016;SDS011;44800;55.600;38.134;2022-09-21T03:44:37;28.27;;;11.93;;
59016;SDS011;44800;55.600;38.134;2022-09-21T03:47:06;29.33;;;13.32;;
59016;SDS011;44800;55.600;38.134;2022-09-21T03:49:34;36.38;;;13.32;;
59016;SDS011;44800;55.600;38.134;2022-09-21T03:52:03;24.50;;;13.00;;
59016;SDS011;44800;55.600;38.134;2022-09-21T03:54:35;33.58;;;13.35;;
59016;SDS011;44800;55.600;38.134;2022-09-21T03:57:05;27.05;;;12.20;;
59016;SDS011;44800;55.600;38.134;2022-09-21T03:59:34;30.25;;;12.02;;
59016;SDS011;44800;55.600;38.134;2022-09-21T04:02:02;27.67;;;12.18;;
59016;SDS011;44800;55.600;38.134;2022-09-21T04:04:31;29.30;;;12.23;;
59016;SDS011;44800;55.600;38.134;2022-09-21T04:07:02;31.10;;;13.98;;
59016;SDS011;44800;55.600;38.134;2022-09-21T04:09:30;27.52;;;11.75;;
59016;SDS011;44800;55.600;38.134;2022-09-21T04:12:00;32.55;;;13.15;;
59016;SDS011;44800;55.600;38.134;2022-09-21T04:14:30;37.28;;;14.00;;
59016;SDS011;44800;55.600;38.134;2022-09-21T04:17:00;25.17;;;13.38;;
59016;SDS011;44800;55.600;38.134;2022-09-21T04:19:28;28.50;;;14.63;;
59016;SDS011;44800;55.600;38.134;2022-09-21T04:22:05;24.60;;;11.95;;
59016;SDS011;44800;55.600;38.134;2022-09-21T04:24:35;26.65;;;13.35;;
59016;SDS011;44800;55.600;38.134;2022-09-21T04:27:07;31.27;;;13.45;;
59016;SDS011;44800;55.600;38.134;2022-09-21T04:29:36;50.72;;;13.70;;
59016;SDS011;44800;55.600;38.134;2022-09-21T04:32:08;34.95;;;14.00;;
59016;SDS011;44800;55.600;38.134;2022-09-21T04:34:37;35.42;;;14.40;;
59016;SDS011;44800;55.600;38.134;2022-09-21T04:37:06;23.58;;;13.25;;
59016;SDS011;44800;55.600;38.134;2022-09-21T04:39:36;32.30;;;13.43;;
59016;SDS011;44800;55.600;38.134;2022-09-21T04:42:04;31.38;;;14.77;;
59016;SDS011;44800;55.600;38.134;2022-09-21T04:44:35;31.48;;;13.77;;
59016;SDS011;44800;55.600;38.134;2022-09-21T04:47:03;35.22;;;15.27;;
59016;SDS011;44800;55.600;38.134;2022-09-21T04:49:32;34.65;;;13.93;;
59016;SDS011;44800;55.600;38.134;2022-09-21T04:52:00;28.45;;;14.38;;
59016;SDS011;44800;55.600;38.134;2022-09-21T04:54:29;31.55;;;13.57;;
59016;SDS011;44800;55.600;38.134;2022-09-21T04:56:58;34.95;;;14.68;;
59016;SDS011;44800;55.600;38.134;2022-09-21T04:59:26;27.50;;;13.82;;
59016;SDS011;44800;55.600;38.134;2022-09-21T05:01:55;31.55;;;13.75;;
59016;SDS011;44800;55.600;38.134;2022-09-21T05:04:23;27.77;;;14.05;;
59016;SDS011;44800;55.600;38.134;2022-09-21T05:06:51;32.05;;;15.30;;
59016;SDS011;44800;55.600;38.134;2022-09-21T05:09:19;34.05;;;14.55;;
59016;SDS011;44800;55.600;38.134;2022-09-21T05:12:07;51.17;;;21.45;;
59016;SDS011;44800;55.600;38.134;2022-09-21T05:14:35;44.55;;;15.98;;
59016;SDS011;44800;55.600;38.134;2022-09-21T05:17:03;39.80;;;15.05;;
59016;SDS011;44800;55.600;38.134;2022-09-21T05:19:32;35.33;;;16.20;;
59016;SDS011;44800;55.600;38.134;2022-09-21T05:22:00;39.65;;;15.50;;
59016;SDS011;44800;55.600;38.134;2022-09-21T05:24:28;28.83;;;14.40;;
59016;SDS011;44800;55.600;38.134;2022-09-21T05:26:56;38.60;;;15.52;;
59016;SDS011;44800;55.600;38.134;2022-09-21T05:29:26;39.30;;;15.80;;
59016;SDS011;44800;55.600;38.134;2022-09-21T05:31:56;29.73;;;14.00;;
59016;SDS011;44800;55.600;38.134;2022-09-21T05:34:36;31.30;;;14.73;;
59016;SDS011;44800;55.600;38.134;2022-09-21T05:37:11;33.90;;;14.77;;
59016;SDS011;44800;55.600;38.134;2022-09-21T05:39:49;30.00;;;13.98;;
59016;SDS011;44800;55.600;38.134;2022-09-21T05:42:18;46.35;;;17.20;;
59016;SDS011;44800;55.600;38.134;2022-09-21T05:44:48;36.22;;;15.57;;
59016;SDS011;44800;55.600;38.134;2022-09-21T05:47:21;35.25;;;16.52;;
59016;SDS011;44800;55.600;38.134;2022-09-21T05:49:53;36.92;;;18.63;;
59016;SDS011;44800;55.600;38.134;2022-09-21T05:52:30;36.75;;;16.83;;
59016;SDS011;44800;55.600;38.134;2022-09-21T05:55:04;31.90;;;15.85;;
59016;SDS011;44800;55.600;38.134;2022-09-21T05:57:40;33.97;;;16.00;;
59016;SDS011;44800;55.600;38.134;2022-09-21T06:00:15;34.38;;;15.65;;
59016;SDS011;44800;55.600;38.134;2022-09-21T06:02:49;31.75;;;14.90;;
59016;SDS011;44800;55.600;38.134;2022-09-21T06:05:24;29.95;;;14.55;;
59016;SDS011;44800;55.600;38.134;2022-09-21T06:07:53;30.33;;;13.45;;
59016;SDS011;44800;55.600;38.134;2022-09-21T06:10:21;34.28;;;16.75;;
59016;SDS011;44800;55.600;38.134;2022-09-21T06:12:52;38.55;;;14.68;;
59016;SDS011;44800;55.600;38.134;2022-09-21T06:15:22;28.88;;;14.75;;
59016;SDS011;44800;55.600;38.134;2022-09-21T06:17:50;29.15;;;15.82;;
59016;SDS011;44800;55.600;38.134;2022-09-21T06:20:18;28.58;;;16.45;;
59016;SDS011;44800;55.600;38.134;2022-09-21T06:22:46;32.65;;;16.27;;
59016;SDS011;44800;55.600;38.134;2022-09-21T06:25:15;39.17;;;17.23;;
59016;SDS011;44800;55.600;38.134;2022-09-21T06:27:45;33.55;;;15.27;;
59016;SDS011;44800;55.600;38.134;2022-09-21T06:30:13;32.25;;;16.23;;
59016;SDS011;44800;55.600;38.134;2022-09-21T06:32:45;31.73;;;17.05;;
59016;SDS011;44800;55.600;38.134;2022-09-21T06:35:15;33.00;;;15.07;;
59016;SDS011;44800;55.600;38.134;2022-09-21T06:37:43;40.13;;;16.60;;
59016;SDS011;44800;55.600;38.134;2022-09-21T06:40:11;32.38;;;15.13;;
59016;SDS011;44800;55.600;38.134;2022-09-21T06:42:40;31.70;;;15.73;;
59016;SDS011;44800;55.600;38.134;2022-09-21T06:45:11;45.30;;;17.58;;
59016;SDS011;44800;55.600;38.134;2022-09-21T06:47:46;47.85;;;19.55;;
59016;SDS011;44800;55.600;38.134;2022-09-21T06:50:15;32.10;;;14.95;;
59016;SDS011;44800;55.600;38.134;2022-09-21T06:52:43;34.55;;;15.57;;
59016;SDS011;44800;55.600;38.134;2022-09-21T06:55:11;36.20;;;16.55;;
59016;SDS011;44800;55.600;38.134;2022-09-21T06:57:40;33.38;;;15.25;;
59016;SDS011;44800;55.600;38.134;2022-09-21T07:00:09;28.42;;;14.70;;
59016;SDS011;44800;55.600;38.134;2022-09-21T07:02:41;31.58;;;15.73;;
59016;SDS011;44800;55.600;38.134;2022-09-21T07:05:11;30.85;;;15.65;;
59016;SDS011;44800;55.600;38.134;2022-09-21T07:07:39;36.72;;;15.82;;
59016;SDS011;44800;55.600;38.134;2022-09-21T07:10:09;33.03;;;16.15;;
59016;SDS011;44800;55.600;38.134;2022-09-21T07:12:45;30.17;;;14.85;;
59016;SDS011;44800;55.600;38.134;2022-09-21T07:15:15;27.35;;;15.82;;
59016;SDS011;44800;55.600;38.134;2022-09-21T07:17:46;27.55;;;14.85;;
59016;SDS011;44800;55.600;38.134;2022-09-21T07:20:19;28.85;;;15.75;;
59016;SDS011;44800;55.600;38.134;2022-09-21T07:22:47;31.13;;;15.02;;
59016;SDS011;44800;55.600;38.134;2022-09-21T07:25:15;21.80;;;12.13;;
59016;SDS011;44800;55.600;38.134;2022-09-21T07:27:44;15.38;;;10.13;;
59016;SDS011;44800;55.600;38.134;2022-09-21T07:30:13;18.90;;;8.32;;
59016;SDS011;44800;55.600;38.134;2022-09-21T07:32:41;10.60;;;6.35;;
59016;SDS011;44800;55.600;38.134;2022-09-21T07:35:10;13.70;;;6.47;;
59016;SDS011;44800;55.600;38.134;2022-09-21T07:37:40;11.13;;;5.50;;
59016;SDS011;44800;55.600;38.134;2022-09-21T07:40:08;10.05;;;5.90;;
59016;SDS011;44800;55.600;38.134;2022-09-21T07:42:37;9.32;;;5.95;;
59016;SDS011;44800;55.600;38.134;2022-09-21T07:45:06;12.52;;;6.65;;
59016;SDS011;44800;55.600;38.134;2022-09-21T07:47:37;9.48;;;5.25;;
59016;SDS011;44800;55.600;38.134;2022-09-21T07:50:05;7.30;;;4.90;;
59016;SDS011;44800;55.600;38.134;2022-09-21T07:52:34;12.07;;;4.57;;
59016;SDS011;44800;55.600;38.134;2022-09-21T07:55:04;7.70;;;4.72;;
59016;SDS011;44800;55.600;38.134;2022-09-21T07:57:33;9.32;;;4.60;;
59016;SDS011;44800;55.600;38.134;2022-09-21T08:00:19;9.38;;;5.20;;
59016;SDS011;44800;55.600;38.134;2022-09-21T08:02:47;7.95;;;5.72;;
59016;SDS011;44800;55.600;38.134;2022-09-21T08:05:17;10.80;;;5.50;;
59016;SDS011;44800;55.600;38.134;2022-09-21T08:07:46;17.85;;;6.75;;
59016;SDS011;44800;55.600;38.134;2022-09-21T08:10:18;11.88;;;6.10;;
59016;SDS011;44800;55.600;38.134;2022-09-21T08:12:46;23.67;;;11.60;;
59016;SDS011;44800;55.600;38.134;2022-09-21T08:15:14;9.45;;;5.90;;
59016;SDS011;44800;55.600;38.134;2022-09-21T08:18:03;12.50;;;6.00;;
59016;SDS011;44800;55.600;38.134;2022-09-21T08:20:34;9.45;;;5.80;;
59016;SDS011;44800;55.600;38.134;2022-09-21T08:23:02;10.80;;;5.93;;
59016;SDS011;44800;55.600;38.134;2022-09-21T08:25:32;10.43;;;6.32;;
59016;SDS011;44800;55.600;38.134;2022-09-21T08:28:02;11.68;;;5.22;;
59016;SDS011;44800;55.600;38.134;2022-09-21T08:30:35;8.38;;;5.32;;
59016;SDS011;44800;55.600;38.134;2022-09-21T08:33:05;11.38;;;5.57;;
59016;SDS011;44800;55.600;38.134;2022-09-21T08:35:34;8.10;;;5.28;;
59016;SDS011;44800;55.600;38.134;2022-09-21T08:38:02;12.07;;;5.32;;
59016;SDS011;44800;55.600;38.134;2022-09-21T08:40:32;9.63;;;5.20;;
59016;SDS011;44800;55.600;38.134;2022-09-21T08:43:02;9.75;;;6.43;;
59016;SDS011;44800;55.600;38.134;2022-09-21T08:45:32;10.82;;;5.78;;
59016;SDS011;44800;55.600;38.134;2022-09-21T08:48:07;10.15;;;5.05;;
59016;SDS011;44800;55.600;38.134;2022-09-21T08:50:42;6.82;;;4.47;;
59016;SDS011;44800;55.600;38.134;2022-09-21T08:53:15;10.57;;;5.55;;
59016;SDS011;44800;55.600;38.134;2022-09-21T08:55:47;9.40;;;4.03;;
59016;SDS011;44800;55.600;38.134;2022-09-21T08:58:20;7.55;;;4.82;;
59016;SDS011;44800;55.600;38.134;2022-09-21T09:00:53;6.60;;;4.15;;
59016;SDS011;44800;55.600;38.134;2022-09-21T09:03:39;10.38;;;5.28;;
59016;SDS011;44800;55.600;38.134;2022-09-21T09:08:58;8.98;;;4.63;;
59016;SDS011;44800;55.600;38.134;2022-09-21T09:11:42;6.90;;;4.03;;
59016;SDS011;44800;55.600;38.134;2022-09-21T09:14:23;11.02;;;4.95;;
59016;SDS011;44800;55.600;38.134;2022-09-21T09:17:02;10.48;;;5.15;;
59016;SDS011;44800;55.600;38.134;2022-09-21T09:19:46;6.55;;;3.90;;
59016;SDS011;44800;55.600;38.134;2022-09-21T09:22:18;5.90;;;4.20;;
59016;SDS011;44800;55.600;38.134;2022-09-21T09:25:11;6.25;;;3.58;;
59016;SDS011;44800;55.600;38.134;2022-09-21T09:27:49;6.63;;;3.75;;
59016;SDS011;44800;55.600;38.134;2022-09-21T09:30:19;8.20;;;4.90;;
59016;SDS011;44800;55.600;38.134;2022-09-21T09:32:51;6.68;;;4.32;;
59016;SDS011;44800;55.600;38.134;2022-09-21T09:35:27;11.30;;;5.65;;
59016;SDS011;44800;55.600;38.134;2022-09-21T09:37:57;9.18;;;5.13;;
59016;SDS011;44800;55.600;38.134;2022-09-21T09:40:42;6.47;;;4.78;;
59016;SDS011;44800;55.600;38.134;2022-09-21T09:43:20;5.47;;;3.35;;
59016;SDS011;44800;55.600;38.134;2022-09-21T09:45:59;6.43;;;4.05;;
59016;SDS011;44800;55.600;38.134;2022-09-21T09:48:34;8.27;;;4.00;;
59016;SDS011;44800;55.600;38.134;2022-09-21T09:51:11;7.35;;;3.42;;
59016;SDS011;44800;55.600;38.134;2022-09-21T09:53:40;5.90;;;4.72;;
59016;SDS011;44800;55.600;38.134;2022-09-21T09:56:08;9.07;;;4.28;;
59016;SDS011;44800;55.600;38.134;2022-09-21T09:58:40;6.32;;;3.67;;
59016;SDS011;44800;55.600;38.134;2022-09-21T10:04:05;5.80;;;3.70;;
59016;SDS011;44800;55.600;38.134;2022-09-21T10:06:34;13.02;;;5.28;;
59016;SDS011;44800;55.600;38.134;2022-09-21T10:11:57;9.73;;;6.00;;
59016;SDS011;44800;55.600;38.134;2022-09-21T10:14:33;7.20;;;5.18;;
59016;SDS011;44800;55.600;38.134;2022-09-21T10:17:03;12.90;;;5.32;;
59016;SDS011;44800;55.600;38.134;2022-09-21T10:19:33;7.70;;;4.93;;
59016;SDS011;44800;55.600;38.134;2022-09-21T10:22:06;7.35;;;4.70;;
59016;SDS011;44800;55.600;38.134;2022-09-21T10:24:37;7.55;;;4.35;;
59016;SDS011;44800;55.600;38.134;2022-09-21T10:27:10;5.45;;;4.82;;
59016;SDS011;44800;55.600;38.134;2022-09-21T10:29:42;6.30;;;4.13;;
59016;SDS011;44800;55.600;38.134;2022-09-21T10:32:18;9.65;;;4.55;;
59016;SDS011;44800;55.600;38.134;2022-09-21T10:35:11;8.55;;;4.03;;
59016;SDS011;44800;55.600;38.134;2022-09-21T10:37:41;5.65;;;4.07;;
59016;SDS011;44800;55.600;38.134;2022-09-21T10:40:22;6.75;;;4.78;;
59016;SDS011;44800;55.600;38.134;2022-09-21T10:42:52;6.25;;;4.28;;
59016;SDS011;44800;55.600;38.134;2022-09-21T10:45:26;9.05;;;3.38;;
59016;SDS011;44800;55.600;38.134;2022-09-21T10:47:55;8.77;;;3.78;;
59016;SDS011;44800;55.600;38.134;2022-09-21T10:50:26;6.75;;;3.97;;
59016;SDS011;44800;55.600;38.134;2022-09-21T10:52:57;4.15;;;3.55;;
59016;SDS011;44800;55.600;38.134;2022-09-21T10:55:28;6.35;;;3.65;;
59016;SDS011;44800;55.600;38.134;2022-09-21T10:57:57;6.93;;;3.40;;
59016;SDS011;44800;55.600;38.134;2022-09-21T11:00:30;6.35;;;3.72;;
59016;SDS011;44800;55.600;38.134;2022-09-21T11:03:03;9.25;;;3.72;;
59016;SDS011;44800;55.600;38.134;2022-09-21T11:05:58;5.60;;;3.95;;
59016;SDS011;44800;55.600;38.134;2022-09-21T11:08:32;3.83;;;2.50;;
59016;SDS011;44800;55.600;38.134;2022-09-21T11:11:06;6.50;;;3.38;;
59016;SDS011;44800;55.600;38.134;2022-09-21T11:13:43;7.07;;;3.78;;
59016;SDS011;44800;55.600;38.134;2022-09-21T11:16:23;7.75;;;3.75;;
59016;SDS011;44800;55.600;38.134;2022-09-21T11:18:57;8.07;;;3.78;;
59016;SDS011;44800;55.600;38.134;2022-09-21T11:21:33;10.50;;;4.05;;
59016;SDS011;44800;55.600;38.134;2022-09-21T11:24:16;4.82;;;3.35;;
59016;SDS011;44800;55.600;38.134;2022-09-21T11:26:48;5.97;;;3.83;;
59016;SDS011;44800;55.600;38.134;2022-09-21T11:29:21;6.55;;;3.65;;
59016;SDS011;44800;55.600;38.134;2022-09-21T11:31:58;7.20;;;3.83;;
59016;SDS011;44800;55.600;38.134;2022-09-21T11:34:52;7.20;;;4.43;;
59016;SDS011;44800;55.600;38.134;2022-09-21T11:37:35;6.28;;;3.65;;
59016;SDS011;44800;55.600;38.134;2022-09-21T11:40:17;8.93;;;3.85;;
59016;SDS011;44800;55.600;38.134;2022-09-21T11:43:02;9.05;;;3.25;;
59016;SDS011;44800;55.600;38.134;2022-09-21T11:45:44;5.05;;;3.38;;
59016;SDS011;44800;55.600;38.134;2022-09-21T11:48:21;3.90;;;2.28;;
59016;SDS011;44800;55.600;38.134;2022-09-21T11:50:59;3.65;;;2.47;;
59016;SDS011;44800;55.600;38.134;2022-09-21T11:53:36;6.22;;;2.58;;
59016;SDS011;44800;55.600;38.134;2022-09-21T11:56:19;4.18;;;2.25;;
59016;SDS011;44800;55.600;38.134;2022-09-21T11:58:59;3.35;;;2.63;;
59016;SDS011;44800;55.600;38.134;2022-09-21T12:01:37;4.07;;;2.42;;
59016;SDS011;44800;55.600;38.134;2022-09-21T12:04:15;5.25;;;2.40;;
59016;SDS011;44800;55.600;38.134;2022-09-21T12:06:53;2.53;;;2.33;;
59016;SDS011;44800;55.600;38.134;2022-09-21T12:09:38;7.57;;;2.97;;
59016;SDS011;44800;55.600;38.134;2022-09-21T12:12:15;6.97;;;3.63;;
59016;SDS011;44800;55.600;38.134;2022-09-21T12:14:54;7.72;;;3.13;;
59016;SDS011;44800;55.600;38.134;2022-09-21T12:17:32;3.70;;;2.53;;
59016;SDS011;44800;55.600;38.134;2022-09-21T12:20:57;4.97;;;2.70;;
59016;SDS011;44800;55.600;38.134;2022-09-21T12:23:35;5.93;;;2.70;;
59016;SDS011;44800;55.600;38.134;2022-09-21T12:26:07;6.15;;;2.80;;
59016;SDS011;44800;55.600;38.134;2022-09-21T12:28:38;3.95;;;2.72;;
59016;SDS011;44800;55.600;38.134;2022-09-21T12:31:10;4.30;;;2.80;;
59016;SDS011;44800;55.600;38.134;2022-09-21T12:33:46;7.88;;;3.72;;
59016;SDS011;44800;55.600;38.134;2022-09-21T12:36:20;5.78;;;3.78;;
59016;SDS011;44800;55.600;38.134;2022-09-21T12:38:52;8.73;;;4.40;;
59016;SDS011;44800;55.600;38.134;2022-09-21T12:41:27;3.08;;;2.53;;
59016;SDS011;44800;55.600;38.134;2022-09-21T12:44:01;4.55;;;2.85;;
59016;SDS011;44800;55.600;38.134;2022-09-21T12:46:37;6.15;;;3.47;;
59016;SDS011;44800;55.600;38.134;2022-09-21T12:49:12;5.68;;;3.00;;
59016;SDS011;44800;55.600;38.134;2022-09-21T12:51:44;7.97;;;3.78;;
59016;SDS011;44800;55.600;38.134;2022-09-21T12:54:19;3.75;;;2.60;;
59016;SDS011;44800;55.600;38.134;2022-09-21T12:56:57;5.47;;;2.80;;
59016;SDS011;44800;55.600;38.134;2022-09-21T12:59:55;3.67;;;1.65;;
59016;SDS011;44800;55.600;38.134;2022-09-21T13:02:33;3.33;;;2.42;;
59016;SDS011;44800;55.600;38.134;2022-09-21T13:05:06;3.65;;;2.22;;
59016;SDS011;44800;55.600;38.134;2022-09-21T13:07:47;6.45;;;2.50;;
59016;SDS011;44800;55.600;38.134;2022-09-21T13:10:28;3.58;;;2.72;;
59016;SDS011;44800;55.600;38.134;2022-09-21T13:13:05;3.83;;;2.78;;
59016;SDS011;44800;55.600;38.134;2022-09-21T13:16:44;2.72;;;2.20;;
59016;SDS011;44800;55.600;38.134;2022-09-21T13:19:23;4.55;;;2.40;;
59016;SDS011;44800;55.600;38.134;2022-09-21T13:24:56;4.80;;;2.58;;
59016;SDS011;44800;55.600;38.134;2022-09-21T13:30:33;3.28;;;1.95;;
59016;SDS011;44800;55.600;38.134;2022-09-21T13:36:01;6.13;;;2.97;;
59016;SDS011;44800;55.600;38.134;2022-09-21T13:38:31;3.80;;;2.70;;
59016;SDS011;44800;55.600;38.134;2022-09-21T13:41:19;7.30;;;3.15;;
59016;SDS011;44800;55.600;38.134;2022-09-21T13:44:19;6.30;;;2.92;;
59016;SDS011;44800;55.600;38.134;2022-09-21T13:47:07;5.95;;;3.13;;
59016;SDS011;44800;55.600;38.134;2022-09-21T13:49:39;4.70;;;2.35;;
59016;SDS011;44800;55.600;38.134;2022-09-21T13:52:23;3.65;;;2.53;;
59016;SDS011;44800;55.600;38.134;2022-09-21T13:54:56;3.60;;;2.45;;
59016;SDS011;44800;55.600;38.134;2022-09-21T13:57:28;4.75;;;3.03;;
59016;SDS011;44800;55.600;38.134;2022-09-21T14:00:04;4.85;;;2.75;;
59016;SDS011;44800;55.600;38.134;2022-09-21T14:02:53;5.82;;;2.63;;
59016;SDS011;44800;55.600;38.134;2022-09-21T14:05:25;6.32;;;3.03;;
59016;SDS011;44800;55.600;38.134;2022-09-21T14:07:57;4.55;;;2.67;;
59016;SDS011;44800;55.600;38.134;2022-09-21T14:10:27;5.35;;;3.13;;
59016;SDS011;44800;55.600;38.134;2022-09-21T14:12:59;6.90;;;3.05;;
59016;SDS011;44800;55.600;38.134;2022-09-21T14:15:35;6.07;;;3.33;;
59016;SDS011;44800;55.600;38.134;2022-09-21T14:21:13;5.28;;;2.67;;
59016;SDS011;44800;55.600;38.134;2022-09-21T14:26:46;3.65;;;3.03;;
59016;SDS011;44800;55.600;38.134;2022-09-21T14:31:48;11.43;;;4.38;;
59016;SDS011;44800;55.600;38.134;2022-09-21T14:34:21;4.20;;;2.47;;
59016;SDS011;44800;55.600;38.134;2022-09-21T14:36:53;8.70;;;3.30;;
59016;SDS011;44800;55.600;38.134;2022-09-21T14:39:24;4.28;;;3.08;;
59016;SDS011;44800;55.600;38.134;2022-09-21T14:41:57;4.63;;;3.42;;
59016;SDS011;44800;55.600;38.134;2022-09-21T14:44:29;5.15;;;3.08;;
59016;SDS011;44800;55.600;38.134;2022-09-21T14:52:51;7.68;;;4.32;;
59016;SDS011;44800;55.600;38.134;2022-09-21T14:55:29;10.95;;;5.82;;
59016;SDS011;44800;55.600;38.134;2022-09-21T14:58:13;8.27;;;5.80;;
59016;SDS011;44800;55.600;38.134;2022-09-21T15:00:50;8.25;;;5.80;;
59016;SDS011;44800;55.600;38.134;2022-09-21T15:09:09;13.18;;;8.70;;
59016;SDS011;44800;55.600;38.134;2022-09-21T15:12:16;15.23;;;6.47;;
59016;SDS011;44800;55.600;38.134;2022-09-21T15:14:46;11.18;;;4.60;;
59016;SDS011;44800;55.600;38.134;2022-09-21T15:17:23;10.80;;;4.10;;
59016;SDS011;44800;55.600;38.134;2022-09-21T15:19:55;13.18;;;6.50;;
59016;SDS011;44800;55.600;38.134;2022-09-21T15:22:24;18.42;;;8.20;;
59016;SDS011;44800;55.600;38.134;2022-09-21T15:24:53;20.92;;;10.10;;
59016;SDS011;44800;55.600;38.134;2022-09-21T15:27:23;21.30;;;11.35;;
59016;SDS011;44800;55.600;38.134;2022-09-21T15:29:56;27.20;;;13.18;;
59016;SDS011;44800;55.600;38.134;2022-09-21T15:32:29;21.90;;;10.32;;
59016;SDS011;44800;55.600;38.134;2022-09-21T15:35:02;17.58;;;9.80;;
59016;SDS011;44800;55.600;38.134;2022-09-21T15:37:33;14.65;;;7.50;;